sensor_id;sensor_type;location;lat;lon;timestamp;P1;durP1;ratioP1;P2;durP2;ratioP2
82727;SDS011;72459;50.110;8.750;2024-02-26T00:01:48;2.97;;;1.33;;
82727;SDS011;72459;50.110;8.750;2024-02-26T00:04:13;2.60;;;1.35;;
82727;SDS011;72459;50.110;8.750;2024-02-26T00:06:39;1.70;;;1.02;;
82727;SDS011;72459;50.110;8.750;2024-02-26T00:09:07;2.42;;;1.25;;
82727;SDS011;72459;50.110;8.750;2024-02-26T00:11:35;2.47;;;1.30;;
82727;SDS011;72459;50.110;8.750;2024-02-26T00:14:01;2.40;;;1.30;;
82727;SDS011;72459;50.110;8.750;2024-02-26T00:16:27;2.60;;;1.38;;
82727;SDS011;72459;50.110;8.750;2024-02-26T00:18:52;3.53;;;1.33;;
82727;SDS011;72459;50.110;8.750;2024-02-26T00:21:18;3.40;;;1.33;;
82727;SDS011;72459;50.110;8.750;2024-02-26T00:23:43;3.60;;;1.52;;
82727;SDS011;72459;50.110;8.750;2024-02-26T00:26:08;4.43;;;1.40;;
82727;SDS011;72459;50.110;8.750;2024-02-26T00:28:35;2.63;;;1.20;;
82727;SDS011;72459;50.110;8.750;2024-02-26T00:31:01;2.25;;;1.23;;
82727;SDS011;72459;50.110;8.750;2024-02-26T00:33:27;2.47;;;1.35;;
82727;SDS011;72459;50.110;8.750;2024-02-26T00:35:52;2.28;;;1.13;;
82727;SDS011;72459;50.110;8.750;2024-02-26T00:38:19;3.20;;;1.30;;
82727;SDS011;72459;50.110;8.750;2024-02-26T00:40:45;1.75;;;1.20;;
82727;SDS011;72459;50.110;8.750;2024-02-26T00:43:11;2.35;;;1.20;;
82727;SDS011;72459;50.110;8.750;2024-02-26T00:45:36;3.95;;;1.13;;
82727;SDS011;72459;50.110;8.750;2024-02-26T00:48:02;3.10;;;1.20;;
82727;SDS011;72459;50.110;8.750;2024-02-26T00:50:30;1.50;;;0.82;;
82727;SDS011;72459;50.110;8.750;2024-02-26T00:52:56;2.00;;;1.00;;
82727;SDS011;72459;50.110;8.750;2024-02-26T00:55:22;2.67;;;1.00;;
82727;SDS011;72459;50.110;8.750;2024-02-26T00:57:47;2.50;;;1.00;;
82727;SDS011;72459;50.110;8.750;2024-02-26T01:00:12;1.93;;;1.13;;
82727;SDS011;72459;50.110;8.750;2024-02-26T01:02:38;2.00;;;1.00;;
82727;SDS011;72459;50.110;8.750;2024-02-26T01:05:05;2.05;;;1.00;;
82727;SDS011;72459;50.110;8.750;2024-02-26T01:07:31;2.97;;;1.52;;
82727;SDS011;72459;50.110;8.750;2024-02-26T01:10:00;2.75;;;1.40;;
82727;SDS011;72459;50.110;8.750;2024-02-26T01:12:26;2.28;;;1.23;;
82727;SDS011;72459;50.110;8.750;2024-02-26T01:14:51;2.08;;;1.23;;
82727;SDS011;72459;50.110;8.750;2024-02-26T01:17:17;2.83;;;1.50;;
82727;SDS011;72459;50.110;8.750;2024-02-26T01:19:43;2.78;;;1.05;;
82727;SDS011;72459;50.110;8.750;2024-02-26T01:22:08;2.00;;;1.00;;
82727;SDS011;72459;50.110;8.750;2024-02-26T01:24:34;1.57;;;0.80;;
82727;SDS011;72459;50.110;8.750;2024-02-26T01:26:59;2.27;;;1.13;;
82727;SDS011;72459;50.110;8.750;2024-02-26T01:29:24;3.07;;;1.23;;
82727;SDS011;72459;50.110;8.750;2024-02-26T01:31:49;1.83;;;1.30;;
82727;SDS011;72459;50.110;8.750;2024-02-26T01:34:15;3.37;;;1.30;;
82727;SDS011;72459;50.110;8.750;2024-02-26T01:36:40;1.98;;;1.20;;
82727;SDS011;72459;50.110;8.750;2024-02-26T01:39:06;2.63;;;1.20;;
82727;SDS011;72459;50.110;8.750;2024-02-26T01:41:32;2.50;;;1.42;;
82727;SDS011;72459;50.110;8.750;2024-02-26T01:43:57;1.90;;;1.20;;
82727;SDS011;72459;50.110;8.750;2024-02-26T01:46:23;1.73;;;1.00;;
82727;SDS011;72459;50.110;8.750;2024-02-26T01:48:48;2.37;;;1.20;;
82727;SDS011;72459;50.110;8.750;2024-02-26T01:51:15;2.80;;;1.20;;
82727;SDS011;72459;50.110;8.750;2024-02-26T01:53:41;2.72;;;1.52;;
82727;SDS011;72459;50.110;8.750;2024-02-26T01:56:06;2.45;;;1.15;;
82727;SDS011;72459;50.110;8.750;2024-02-26T01:58:33;2.08;;;1.10;;
82727;SDS011;72459;50.110;8.750;2024-02-26T02:01:01;2.30;;;1.00;;
82727;SDS011;72459;50.110;8.750;2024-02-26T02:03:28;2.17;;;1.30;;
82727;SDS011;72459;50.110;8.750;2024-02-26T02:05:54;2.20;;;1.02;;
82727;SDS011;72459;50.110;8.750;2024-02-26T02:08:20;3.92;;;1.23;;
82727;SDS011;72459;50.110;8.750;2024-02-26T02:10:46;1.92;;;1.00;;
82727;SDS011;72459;50.110;8.750;2024-02-26T02:13:14;1.85;;;1.13;;
82727;SDS011;72459;50.110;8.750;2024-02-26T02:15:39;2.35;;;1.00;;
82727;SDS011;72459;50.110;8.750;2024-02-26T02:18:05;2.43;;;1.00;;
82727;SDS011;72459;50.110;8.750;2024-02-26T02:20:34;2.65;;;1.20;;
82727;SDS011;72459;50.110;8.750;2024-02-26T02:23:00;1.60;;;1.08;;
82727;SDS011;72459;50.110;8.750;2024-02-26T02:25:25;2.67;;;1.27;;
82727;SDS011;72459;50.110;8.750;2024-02-26T02:27:52;3.40;;;0.98;;
82727;SDS011;72459;50.110;8.750;2024-02-26T02:32:45;1.75;;;1.00;;
82727;SDS011;72459;50.110;8.750;2024-02-26T02:35:11;2.05;;;1.25;;
82727;SDS011;72459;50.110;8.750;2024-02-26T02:37:36;2.22;;;1.02;;
82727;SDS011;72459;50.110;8.750;2024-02-26T02:40:02;3.58;;;1.33;;
82727;SDS011;72459;50.110;8.750;2024-02-26T02:42:28;2.58;;;1.15;;
82727;SDS011;72459;50.110;8.750;2024-02-26T02:44:53;2.07;;;1.30;;
82727;SDS011;72459;50.110;8.750;2024-02-26T02:47:18;2.83;;;1.13;;
82727;SDS011;72459;50.110;8.750;2024-02-26T02:49:44;2.50;;;1.53;;
82727;SDS011;72459;50.110;8.750;2024-02-26T02:52:09;2.10;;;1.08;;
82727;SDS011;72459;50.110;8.750;2024-02-26T02:54:34;3.60;;;1.30;;
82727;SDS011;72459;50.110;8.750;2024-02-26T02:57:01;2.72;;;1.33;;
82727;SDS011;72459;50.110;8.750;2024-02-26T02:59:28;2.88;;;1.10;;
82727;SDS011;72459;50.110;8.750;2024-02-26T03:01:53;2.92;;;1.38;;
82727;SDS011;72459;50.110;8.750;2024-02-26T03:04:18;2.53;;;1.33;;
82727;SDS011;72459;50.110;8.750;2024-02-26T03:06:44;3.07;;;1.60;;
82727;SDS011;72459;50.110;8.750;2024-02-26T03:09:09;2.10;;;1.13;;
82727;SDS011;72459;50.110;8.750;2024-02-26T03:11:35;2.90;;;1.48;;
82727;SDS011;72459;50.110;8.750;2024-02-26T03:14:00;2.10;;;1.42;;
82727;SDS011;72459;50.110;8.750;2024-02-26T03:16:26;5.82;;;1.50;;
82727;SDS011;72459;50.110;8.750;2024-02-26T03:18:51;2.88;;;1.70;;
82727;SDS011;72459;50.110;8.750;2024-02-26T03:21:17;2.33;;;1.50;;
82727;SDS011;72459;50.110;8.750;2024-02-26T03:23:43;2.15;;;1.13;;
82727;SDS011;72459;50.110;8.750;2024-02-26T03:26:08;2.30;;;1.40;;
82727;SDS011;72459;50.110;8.750;2024-02-26T03:28:38;3.25;;;1.35;;
82727;SDS011;72459;50.110;8.750;2024-02-26T03:31:03;3.30;;;1.13;;
82727;SDS011;72459;50.110;8.750;2024-02-26T03:33:29;1.90;;;1.20;;
82727;SDS011;72459;50.110;8.750;2024-02-26T03:35:54;3.90;;;1.85;;
82727;SDS011;72459;50.110;8.750;2024-02-26T03:38:19;2.58;;;1.33;;
82727;SDS011;72459;50.110;8.750;2024-02-26T03:40:45;2.55;;;1.33;;
82727;SDS011;72459;50.110;8.750;2024-02-26T03:43:10;2.50;;;1.30;;
82727;SDS011;72459;50.110;8.750;2024-02-26T03:45:35;2.60;;;1.60;;
82727;SDS011;72459;50.110;8.750;2024-02-26T03:48:01;2.75;;;1.52;;
82727;SDS011;72459;50.110;8.750;2024-02-26T03:50:26;2.38;;;1.70;;
82727;SDS011;72459;50.110;8.750;2024-02-26T03:52:51;2.87;;;1.50;;
82727;SDS011;72459;50.110;8.750;2024-02-26T03:55:17;2.85;;;1.60;;
82727;SDS011;72459;50.110;8.750;2024-02-26T03:57:46;3.25;;;1.63;;
82727;SDS011;72459;50.110;8.750;2024-02-26T04:00:12;4.88;;;1.90;;
82727;SDS011;72459;50.110;8.750;2024-02-26T04:02:38;3.05;;;1.60;;
82727;SDS011;72459;50.110;8.750;2024-02-26T04:05:03;4.40;;;1.70;;
82727;SDS011;72459;50.110;8.750;2024-02-26T04:07:29;4.18;;;1.90;;
82727;SDS011;72459;50.110;8.750;2024-02-26T04:09:54;5.03;;;1.70;;
82727;SDS011;72459;50.110;8.750;2024-02-26T04:12:20;2.70;;;1.30;;
82727;SDS011;72459;50.110;8.750;2024-02-26T04:14:45;3.30;;;1.80;;
82727;SDS011;72459;50.110;8.750;2024-02-26T04:17:10;2.40;;;1.50;;
82727;SDS011;72459;50.110;8.750;2024-02-26T04:19:36;2.90;;;1.60;;
82727;SDS011;72459;50.110;8.750;2024-02-26T04:22:01;7.07;;;1.50;;
82727;SDS011;72459;50.110;8.750;2024-02-26T04:24:27;2.38;;;1.88;;
82727;SDS011;72459;50.110;8.750;2024-02-26T04:26:52;2.70;;;2.00;;
82727;SDS011;72459;50.110;8.750;2024-02-26T04:29:17;3.35;;;1.83;;
82727;SDS011;72459;50.110;8.750;2024-02-26T04:31:43;2.70;;;2.00;;
82727;SDS011;72459;50.110;8.750;2024-02-26T04:34:08;4.88;;;1.83;;
82727;SDS011;72459;50.110;8.750;2024-02-26T04:36:33;3.63;;;2.08;;
82727;SDS011;72459;50.110;8.750;2024-02-26T04:38:59;3.70;;;2.20;;
82727;SDS011;72459;50.110;8.750;2024-02-26T04:41:24;2.93;;;1.90;;
82727;SDS011;72459;50.110;8.750;2024-02-26T04:43:50;3.67;;;1.70;;
82727;SDS011;72459;50.110;8.750;2024-02-26T04:46:15;3.60;;;1.90;;
82727;SDS011;72459;50.110;8.750;2024-02-26T04:48:40;2.67;;;1.80;;
82727;SDS011;72459;50.110;8.750;2024-02-26T04:51:07;3.63;;;2.17;;
82727;SDS011;72459;50.110;8.750;2024-02-26T04:53:32;3.40;;;1.83;;
82727;SDS011;72459;50.110;8.750;2024-02-26T04:55:57;2.85;;;1.83;;
82727;SDS011;72459;50.110;8.750;2024-02-26T04:58:23;2.53;;;1.83;;
82727;SDS011;72459;50.110;8.750;2024-02-26T05:00:48;3.13;;;1.80;;
82727;SDS011;72459;50.110;8.750;2024-02-26T05:03:14;3.58;;;2.25;;
82727;SDS011;72459;50.110;8.750;2024-02-26T05:05:41;3.15;;;1.77;;
82727;SDS011;72459;50.110;8.750;2024-02-26T05:08:07;3.88;;;1.90;;
82727;SDS011;72459;50.110;8.750;2024-02-26T05:10:33;3.15;;;2.15;;
82727;SDS011;72459;50.110;8.750;2024-02-26T05:12:59;3.03;;;1.83;;
82727;SDS011;72459;50.110;8.750;2024-02-26T05:15:25;3.28;;;1.85;;
82727;SDS011;72459;50.110;8.750;2024-02-26T05:17:50;3.35;;;2.05;;
82727;SDS011;72459;50.110;8.750;2024-02-26T05:20:15;4.70;;;2.23;;
82727;SDS011;72459;50.110;8.750;2024-02-26T05:22:42;3.13;;;1.75;;
82727;SDS011;72459;50.110;8.750;2024-02-26T05:25:07;4.18;;;1.85;;
82727;SDS011;72459;50.110;8.750;2024-02-26T05:27:33;5.13;;;1.70;;
82727;SDS011;72459;50.110;8.750;2024-02-26T05:29:58;4.80;;;2.20;;
82727;SDS011;72459;50.110;8.750;2024-02-26T05:32:24;4.53;;;2.23;;
82727;SDS011;72459;50.110;8.750;2024-02-26T05:34:49;2.83;;;1.90;;
82727;SDS011;72459;50.110;8.750;2024-02-26T05:37:15;3.77;;;2.20;;
82727;SDS011;72459;50.110;8.750;2024-02-26T05:39:40;4.40;;;2.30;;
82727;SDS011;72459;50.110;8.750;2024-02-26T05:42:06;3.55;;;1.90;;
82727;SDS011;72459;50.110;8.750;2024-02-26T05:44:33;4.05;;;2.38;;
82727;SDS011;72459;50.110;8.750;2024-02-26T05:46:59;4.30;;;1.90;;
82727;SDS011;72459;50.110;8.750;2024-02-26T05:49:24;3.78;;;2.63;;
82727;SDS011;72459;50.110;8.750;2024-02-26T05:51:50;3.47;;;1.77;;
82727;SDS011;72459;50.110;8.750;2024-02-26T05:54:15;3.78;;;2.33;;
82727;SDS011;72459;50.110;8.750;2024-02-26T05:56:41;2.90;;;1.95;;
82727;SDS011;72459;50.110;8.750;2024-02-26T05:59:06;5.03;;;2.53;;
82727;SDS011;72459;50.110;8.750;2024-02-26T06:01:31;4.37;;;2.40;;
82727;SDS011;72459;50.110;8.750;2024-02-26T06:03:58;4.15;;;2.55;;
82727;SDS011;72459;50.110;8.750;2024-02-26T06:06:23;5.35;;;2.65;;
82727;SDS011;72459;50.110;8.750;2024-02-26T06:08:48;4.57;;;2.67;;
82727;SDS011;72459;50.110;8.750;2024-02-26T06:11:14;3.33;;;2.03;;
82727;SDS011;72459;50.110;8.750;2024-02-26T06:13:39;3.85;;;2.15;;
82727;SDS011;72459;50.110;8.750;2024-02-26T06:16:05;5.47;;;2.55;;
82727;SDS011;72459;50.110;8.750;2024-02-26T06:18:31;4.70;;;2.55;;
82727;SDS011;72459;50.110;8.750;2024-02-26T06:20:56;7.67;;;2.67;;
82727;SDS011;72459;50.110;8.750;2024-02-26T06:23:21;2.95;;;2.17;;
82727;SDS011;72459;50.110;8.750;2024-02-26T06:25:47;3.45;;;1.92;;
82727;SDS011;72459;50.110;8.750;2024-02-26T06:28:13;4.65;;;2.70;;
82727;SDS011;72459;50.110;8.750;2024-02-26T06:30:38;4.93;;;2.60;;
82727;SDS011;72459;50.110;8.750;2024-02-26T06:33:04;4.45;;;2.67;;
82727;SDS011;72459;50.110;8.750;2024-02-26T06:35:29;4.05;;;2.55;;
82727;SDS011;72459;50.110;8.750;2024-02-26T06:37:55;4.03;;;2.63;;
82727;SDS011;72459;50.110;8.750;2024-02-26T06:40:21;4.05;;;2.72;;
82727;SDS011;72459;50.110;8.750;2024-02-26T06:42:46;4.45;;;2.60;;
82727;SDS011;72459;50.110;8.750;2024-02-26T06:45:11;3.67;;;2.38;;
82727;SDS011;72459;50.110;8.750;2024-02-26T06:47:37;3.92;;;2.22;;
82727;SDS011;72459;50.110;8.750;2024-02-26T06:50:02;5.67;;;2.50;;
82727;SDS011;72459;50.110;8.750;2024-02-26T06:52:28;4.50;;;2.47;;
82727;SDS011;72459;50.110;8.750;2024-02-26T06:54:53;3.78;;;2.35;;
82727;SDS011;72459;50.110;8.750;2024-02-26T06:57:19;4.53;;;2.80;;
82727;SDS011;72459;50.110;8.750;2024-02-26T06:59:46;6.15;;;2.83;;
82727;SDS011;72459;50.110;8.750;2024-02-26T07:02:12;5.03;;;2.75;;
82727;SDS011;72459;50.110;8.750;2024-02-26T07:04:41;5.40;;;2.83;;
82727;SDS011;72459;50.110;8.750;2024-02-26T07:07:07;6.30;;;2.83;;
82727;SDS011;72459;50.110;8.750;2024-02-26T07:09:33;6.53;;;2.92;;
82727;SDS011;72459;50.110;8.750;2024-02-26T07:11:58;5.75;;;2.53;;
82727;SDS011;72459;50.110;8.750;2024-02-26T07:14:24;4.57;;;2.60;;
82727;SDS011;72459;50.110;8.750;2024-02-26T07:16:49;4.80;;;2.80;;
82727;SDS011;72459;50.110;8.750;2024-02-26T07:19:15;3.97;;;2.70;;
82727;SDS011;72459;50.110;8.750;2024-02-26T07:21:41;4.82;;;2.58;;
82727;SDS011;72459;50.110;8.750;2024-02-26T07:24:06;3.80;;;2.55;;
82727;SDS011;72459;50.110;8.750;2024-02-26T07:26:32;6.80;;;3.00;;
82727;SDS011;72459;50.110;8.750;2024-02-26T07:28:57;6.70;;;4.63;;
82727;SDS011;72459;50.110;8.750;2024-02-26T07:31:23;5.00;;;3.30;;
82727;SDS011;72459;50.110;8.750;2024-02-26T07:33:48;4.68;;;3.20;;
82727;SDS011;72459;50.110;8.750;2024-02-26T07:36:14;5.72;;;3.05;;
82727;SDS011;72459;50.110;8.750;2024-02-26T07:38:39;4.50;;;2.67;;
82727;SDS011;72459;50.110;8.750;2024-02-26T07:41:04;5.13;;;2.70;;
82727;SDS011;72459;50.110;8.750;2024-02-26T07:43:30;5.60;;;2.55;;
82727;SDS011;72459;50.110;8.750;2024-02-26T07:45:56;6.22;;;2.80;;
82727;SDS011;72459;50.110;8.750;2024-02-26T07:48:22;4.65;;;3.10;;
82727;SDS011;72459;50.110;8.750;2024-02-26T07:50:47;5.90;;;3.03;;
82727;SDS011;72459;50.110;8.750;2024-02-26T07:53:13;4.70;;;2.40;;
82727;SDS011;72459;50.110;8.750;2024-02-26T07:55:38;5.28;;;3.00;;
82727;SDS011;72459;50.110;8.750;2024-02-26T07:58:04;5.03;;;2.75;;
82727;SDS011;72459;50.110;8.750;2024-02-26T08:00:29;6.03;;;2.50;;
82727;SDS011;72459;50.110;8.750;2024-02-26T08:02:54;5.53;;;2.77;;
82727;SDS011;72459;50.110;8.750;2024-02-26T08:05:20;4.80;;;3.10;;
82727;SDS011;72459;50.110;8.750;2024-02-26T08:07:45;4.78;;;2.85;;
82727;SDS011;72459;50.110;8.750;2024-02-26T08:10:11;5.68;;;2.85;;
82727;SDS011;72459;50.110;8.750;2024-02-26T08:12:36;4.93;;;3.08;;
82727;SDS011;72459;50.110;8.750;2024-02-26T08:15:02;6.15;;;3.00;;
82727;SDS011;72459;50.110;8.750;2024-02-26T08:17:27;5.95;;;3.22;;
82727;SDS011;72459;50.110;8.750;2024-02-26T08:19:53;4.68;;;2.40;;
82727;SDS011;72459;50.110;8.750;2024-02-26T08:22:18;6.68;;;3.05;;
82727;SDS011;72459;50.110;8.750;2024-02-26T08:24:44;5.97;;;3.03;;
82727;SDS011;72459;50.110;8.750;2024-02-26T08:27:10;8.15;;;3.95;;
82727;SDS011;72459;50.110;8.750;2024-02-26T08:29:35;6.93;;;3.30;;
82727;SDS011;72459;50.110;8.750;2024-02-26T08:32:00;6.13;;;3.00;;
82727;SDS011;72459;50.110;8.750;2024-02-26T08:34:26;6.32;;;3.38;;
82727;SDS011;72459;50.110;8.750;2024-02-26T08:36:51;7.13;;;3.50;;
82727;SDS011;72459;50.110;8.750;2024-02-26T08:39:17;6.75;;;3.22;;
82727;SDS011;72459;50.110;8.750;2024-02-26T08:41:44;6.35;;;3.05;;
82727;SDS011;72459;50.110;8.750;2024-02-26T08:44:10;5.40;;;3.08;;
82727;SDS011;72459;50.110;8.750;2024-02-26T08:46:35;7.05;;;3.85;;
82727;SDS011;72459;50.110;8.750;2024-02-26T08:49:01;6.83;;;3.07;;
82727;SDS011;72459;50.110;8.750;2024-02-26T08:51:26;6.13;;;3.38;;
82727;SDS011;72459;50.110;8.750;2024-02-26T08:53:52;6.95;;;3.63;;
82727;SDS011;72459;50.110;8.750;2024-02-26T08:56:18;7.40;;;3.40;;
82727;SDS011;72459;50.110;8.750;2024-02-26T08:58:46;5.55;;;2.72;;
82727;SDS011;72459;50.110;8.750;2024-02-26T09:01:14;7.72;;;3.40;;
82727;SDS011;72459;50.110;8.750;2024-02-26T09:03:42;9.00;;;3.67;;
82727;SDS011;72459;50.110;8.750;2024-02-26T09:06:08;6.13;;;3.72;;
82727;SDS011;72459;50.110;8.750;2024-02-26T09:08:33;9.45;;;3.75;;
82727;SDS011;72459;50.110;8.750;2024-02-26T09:11:01;9.18;;;3.88;;
82727;SDS011;72459;50.110;8.750;2024-02-26T09:13:26;6.70;;;3.53;;
82727;SDS011;72459;50.110;8.750;2024-02-26T09:15:51;7.07;;;3.30;;
82727;SDS011;72459;50.110;8.750;2024-02-26T09:18:17;6.73;;;3.57;;
82727;SDS011;72459;50.110;8.750;2024-02-26T09:20:42;5.30;;;3.10;;
82727;SDS011;72459;50.110;8.750;2024-02-26T09:23:07;6.82;;;3.58;;
82727;SDS011;72459;50.110;8.750;2024-02-26T09:25:34;8.57;;;4.78;;
82727;SDS011;72459;50.110;8.750;2024-02-26T09:28:00;8.48;;;3.78;;
82727;SDS011;72459;50.110;8.750;2024-02-26T09:30:26;7.32;;;4.10;;
82727;SDS011;72459;50.110;8.750;2024-02-26T09:32:51;7.68;;;3.92;;
82727;SDS011;72459;50.110;8.750;2024-02-26T09:35:16;8.63;;;4.47;;
82727;SDS011;72459;50.110;8.750;2024-02-26T09:37:42;7.50;;;3.75;;
82727;SDS011;72459;50.110;8.750;2024-02-26T09:40:09;5.82;;;3.60;;
82727;SDS011;72459;50.110;8.750;2024-02-26T09:42:40;6.80;;;3.70;;
82727;SDS011;72459;50.110;8.750;2024-02-26T09:45:09;7.03;;;3.78;;
82727;SDS011;72459;50.110;8.750;2024-02-26T09:47:39;7.82;;;3.80;;
82727;SDS011;72459;50.110;8.750;2024-02-26T09:50:05;8.93;;;4.03;;
82727;SDS011;72459;50.110;8.750;2024-02-26T09:52:34;8.88;;;3.92;;
82727;SDS011;72459;50.110;8.750;2024-02-26T09:55:03;8.25;;;3.80;;
82727;SDS011;72459;50.110;8.750;2024-02-26T09:57:29;8.52;;;4.32;;
82727;SDS011;72459;50.110;8.750;2024-02-26T09:59:55;8.65;;;4.20;;
82727;SDS011;72459;50.110;8.750;2024-02-26T10:02:28;7.38;;;3.70;;
82727;SDS011;72459;50.110;8.750;2024-02-26T10:04:55;6.57;;;3.72;;
82727;SDS011;72459;50.110;8.750;2024-02-26T10:07:26;6.43;;;3.72;;
82727;SDS011;72459;50.110;8.750;2024-02-26T10:09:55;6.60;;;4.03;;
82727;SDS011;72459;50.110;8.750;2024-02-26T10:12:20;6.40;;;3.97;;
82727;SDS011;72459;50.110;8.750;2024-02-26T10:14:47;6.85;;;3.47;;
82727;SDS011;72459;50.110;8.750;2024-02-26T10:17:12;8.80;;;4.10;;
82727;SDS011;72459;50.110;8.750;2024-02-26T10:19:38;10.55;;;4.35;;
82727;SDS011;72459;50.110;8.750;2024-02-26T10:22:03;6.37;;;3.67;;
82727;SDS011;72459;50.110;8.750;2024-02-26T10:24:29;7.00;;;3.88;;
82727;SDS011;72459;50.110;8.750;2024-02-26T10:26:56;6.80;;;3.80;;
82727;SDS011;72459;50.110;8.750;2024-02-26T10:29:23;7.75;;;4.03;;
82727;SDS011;72459;50.110;8.750;2024-02-26T10:31:51;9.20;;;4.38;;
82727;SDS011;72459;50.110;8.750;2024-02-26T10:34:17;6.97;;;3.30;;
82727;SDS011;72459;50.110;8.750;2024-02-26T10:36:43;8.48;;;4.38;;
82727;SDS011;72459;50.110;8.750;2024-02-26T10:39:13;6.78;;;3.67;;
82727;SDS011;72459;50.110;8.750;2024-02-26T10:41:39;7.43;;;4.20;;
82727;SDS011;72459;50.110;8.750;2024-02-26T10:44:07;7.45;;;4.03;;
82727;SDS011;72459;50.110;8.750;2024-02-26T10:46:35;6.75;;;3.60;;
82727;SDS011;72459;50.110;8.750;2024-02-26T10:49:02;8.27;;;3.63;;
82727;SDS011;72459;50.110;8.750;2024-02-26T10:51:29;6.97;;;4.20;;
82727;SDS011;72459;50.110;8.750;2024-02-26T10:53:58;7.80;;;3.78;;
82727;SDS011;72459;50.110;8.750;2024-02-26T10:56:27;6.88;;;3.75;;
82727;SDS011;72459;50.110;8.750;2024-02-26T10:58:57;9.40;;;4.65;;
82727;SDS011;72459;50.110;8.750;2024-02-26T11:01:23;6.18;;;3.78;;
82727;SDS011;72459;50.110;8.750;2024-02-26T11:03:50;6.63;;;3.35;;
82727;SDS011;72459;50.110;8.750;2024-02-26T11:06:17;6.72;;;3.72;;
82727;SDS011;72459;50.110;8.750;2024-02-26T11:08:44;5.70;;;3.97;;
82727;SDS011;72459;50.110;8.750;2024-02-26T11:11:13;6.38;;;3.78;;
82727;SDS011;72459;50.110;8.750;2024-02-26T11:13:40;8.23;;;3.47;;
82727;SDS011;72459;50.110;8.750;2024-02-26T11:16:09;6.63;;;3.70;;
82727;SDS011;72459;50.110;8.750;2024-02-26T11:18:35;5.25;;;3.22;;
82727;SDS011;72459;50.110;8.750;2024-02-26T11:21:02;5.75;;;3.65;;
82727;SDS011;72459;50.110;8.750;2024-02-26T11:23:28;13.07;;;11.15;;
82727;SDS011;72459;50.110;8.750;2024-02-26T11:25:54;9.70;;;5.55;;
82727;SDS011;72459;50.110;8.750;2024-02-26T11:28:24;7.43;;;3.70;;
82727;SDS011;72459;50.110;8.750;2024-02-26T11:30:52;6.82;;;3.25;;
82727;SDS011;72459;50.110;8.750;2024-02-26T11:33:18;6.32;;;3.78;;
82727;SDS011;72459;50.110;8.750;2024-02-26T11:35:44;5.93;;;3.25;;
82727;SDS011;72459;50.110;8.750;2024-02-26T11:38:16;5.60;;;3.53;;
82727;SDS011;72459;50.110;8.750;2024-02-26T11:40:46;5.85;;;3.83;;
82727;SDS011;72459;50.110;8.750;2024-02-26T11:43:12;6.10;;;3.28;;
82727;SDS011;72459;50.110;8.750;2024-02-26T11:48:16;4.68;;;3.05;;
82727;SDS011;72459;50.110;8.750;2024-02-26T11:50:46;6.07;;;3.05;;
82727;SDS011;72459;50.110;8.750;2024-02-26T11:55:47;7.60;;;3.35;;
82727;SDS011;72459;50.110;8.750;2024-02-26T11:58:14;6.60;;;3.47;;
82727;SDS011;72459;50.110;8.750;2024-02-26T12:00:40;4.85;;;3.58;;
82727;SDS011;72459;50.110;8.750;2024-02-26T12:03:06;6.72;;;3.30;;
82727;SDS011;72459;50.110;8.750;2024-02-26T12:05:34;7.10;;;5.50;;
82727;SDS011;72459;50.110;8.750;2024-02-26T12:08:02;5.40;;;3.65;;
82727;SDS011;72459;50.110;8.750;2024-02-26T12:10:31;5.65;;;3.17;;
82727;SDS011;72459;50.110;8.750;2024-02-26T12:13:08;6.80;;;3.53;;
82727;SDS011;72459;50.110;8.750;2024-02-26T12:15:39;6.60;;;3.50;;
82727;SDS011;72459;50.110;8.750;2024-02-26T12:18:08;5.47;;;3.15;;
82727;SDS011;72459;50.110;8.750;2024-02-26T12:20:35;5.53;;;3.20;;
82727;SDS011;72459;50.110;8.750;2024-02-26T12:23:04;6.15;;;3.40;;
82727;SDS011;72459;50.110;8.750;2024-02-26T12:25:30;4.72;;;2.83;;
82727;SDS011;72459;50.110;8.750;2024-02-26T12:27:56;5.63;;;3.28;;
82727;SDS011;72459;50.110;8.750;2024-02-26T12:30:22;5.60;;;3.38;;
82727;SDS011;72459;50.110;8.750;2024-02-26T12:32:50;6.18;;;3.40;;
82727;SDS011;72459;50.110;8.750;2024-02-26T12:35:16;5.28;;;3.63;;
82727;SDS011;72459;50.110;8.750;2024-02-26T12:37:45;7.07;;;3.42;;
82727;SDS011;72459;50.110;8.750;2024-02-26T12:40:11;5.35;;;3.40;;
82727;SDS011;72459;50.110;8.750;2024-02-26T12:42:38;5.20;;;2.88;;
82727;SDS011;72459;50.110;8.750;2024-02-26T12:45:05;5.63;;;2.83;;
82727;SDS011;72459;50.110;8.750;2024-02-26T12:47:40;5.78;;;2.92;;
82727;SDS011;72459;50.110;8.750;2024-02-26T12:50:14;4.45;;;3.10;;
82727;SDS011;72459;50.110;8.750;2024-02-26T12:52:45;7.35;;;3.13;;
82727;SDS011;72459;50.110;8.750;2024-02-26T12:55:17;6.20;;;3.25;;
82727;SDS011;72459;50.110;8.750;2024-02-26T12:57:44;5.93;;;3.45;;
82727;SDS011;72459;50.110;8.750;2024-02-26T13:00:12;5.38;;;3.13;;
82727;SDS011;72459;50.110;8.750;2024-02-26T13:02:39;5.90;;;2.92;;
82727;SDS011;72459;50.110;8.750;2024-02-26T13:05:07;6.03;;;3.50;;
82727;SDS011;72459;50.110;8.750;2024-02-26T13:07:33;6.38;;;3.30;;
82727;SDS011;72459;50.110;8.750;2024-02-26T13:10:05;5.32;;;3.13;;
82727;SDS011;72459;50.110;8.750;2024-02-26T13:12:31;4.20;;;2.80;;
82727;SDS011;72459;50.110;8.750;2024-02-26T13:15:00;5.93;;;3.63;;
82727;SDS011;72459;50.110;8.750;2024-02-26T13:17:27;4.32;;;2.83;;
82727;SDS011;72459;50.110;8.750;2024-02-26T13:19:56;5.22;;;3.35;;
82727;SDS011;72459;50.110;8.750;2024-02-26T13:22:21;6.20;;;2.83;;
82727;SDS011;72459;50.110;8.750;2024-02-26T13:24:57;5.15;;;3.17;;
82727;SDS011;72459;50.110;8.750;2024-02-26T13:27:23;5.60;;;3.45;;
82727;SDS011;72459;50.110;8.750;2024-02-26T13:30:01;6.35;;;3.78;;
82727;SDS011;72459;50.110;8.750;2024-02-26T13:32:27;5.53;;;3.13;;
82727;SDS011;72459;50.110;8.750;2024-02-26T13:35:03;5.68;;;2.97;;
82727;SDS011;72459;50.110;8.750;2024-02-26T13:37:31;5.05;;;3.00;;
82727;SDS011;72459;50.110;8.750;2024-02-26T13:39:56;5.10;;;3.27;;
82727;SDS011;72459;50.110;8.750;2024-02-26T13:42:21;5.47;;;2.80;;
82727;SDS011;72459;50.110;8.750;2024-02-26T13:44:47;4.10;;;2.80;;
82727;SDS011;72459;50.110;8.750;2024-02-26T13:47:12;5.30;;;2.97;;
82727;SDS011;72459;50.110;8.750;2024-02-26T13:49:38;6.05;;;2.85;;
82727;SDS011;72459;50.110;8.750;2024-02-26T13:52:03;5.28;;;3.88;;
82727;SDS011;72459;50.110;8.750;2024-02-26T13:54:29;5.47;;;3.28;;
82727;SDS011;72459;50.110;8.750;2024-02-26T13:56:54;6.30;;;3.43;;
82727;SDS011;72459;50.110;8.750;2024-02-26T13:59:20;5.63;;;2.70;;
82727;SDS011;72459;50.110;8.750;2024-02-26T14:01:45;4.50;;;2.93;;
82727;SDS011;72459;50.110;8.750;2024-02-26T14:04:10;7.80;;;3.60;;
82727;SDS011;72459;50.110;8.750;2024-02-26T14:06:36;4.78;;;2.83;;
82727;SDS011;72459;50.110;8.750;2024-02-26T14:09:01;4.90;;;3.03;;
82727;SDS011;72459;50.110;8.750;2024-02-26T14:11:27;5.18;;;2.58;;
82727;SDS011;72459;50.110;8.750;2024-02-26T14:13:54;4.05;;;2.97;;
82727;SDS011;72459;50.110;8.750;2024-02-26T14:16:19;5.28;;;2.97;;
82727;SDS011;72459;50.110;8.750;2024-02-26T14:18:45;5.35;;;3.28;;
82727;SDS011;72459;50.110;8.750;2024-02-26T14:21:11;4.85;;;2.80;;
82727;SDS011;72459;50.110;8.750;2024-02-26T14:23:37;5.00;;;2.75;;
82727;SDS011;72459;50.110;8.750;2024-02-26T14:26:02;5.57;;;3.13;;
82727;SDS011;72459;50.110;8.750;2024-02-26T14:28:28;4.63;;;2.53;;
82727;SDS011;72459;50.110;8.750;2024-02-26T14:30:54;5.18;;;3.17;;
82727;SDS011;72459;50.110;8.750;2024-02-26T14:33:19;4.82;;;2.90;;
82727;SDS011;72459;50.110;8.750;2024-02-26T14:35:45;4.97;;;2.80;;
82727;SDS011;72459;50.110;8.750;2024-02-26T14:38:10;4.38;;;2.30;;
82727;SDS011;72459;50.110;8.750;2024-02-26T14:40:36;4.00;;;2.40;;
82727;SDS011;72459;50.110;8.750;2024-02-26T14:43:02;4.60;;;2.60;;
82727;SDS011;72459;50.110;8.750;2024-02-26T14:45:29;4.05;;;2.90;;
82727;SDS011;72459;50.110;8.750;2024-02-26T14:47:54;3.30;;;2.40;;
82727;SDS011;72459;50.110;8.750;2024-02-26T14:50:20;3.63;;;2.33;;